Time;durP1;ratioP1;P1;durP2;ratioP2;P2;SDS_P1;SDS_P2;PMS_P1;PMS_P2;Temp;Humidity;BMP_temperature;BMP_pressure;BME280_temperature;BME280_humidity;BME280_pressure;Samples;Min_cycle;Max_cycle;Signal;HPM_P1;HPM_P2
2024/01/26 00:01:56;;;;;;;22.63;4.70;;;;;;;;;;4946857;28;20039;-77
2024/01/26 00:04:22;;;;;;;19.08;5.93;;;;;;;;;;4945142;28;20073;-78
2024/01/26 00:06:48;;;;;;;20.02;5.43;;;;;;;;;;4965300;28;20041;-78
2024/01/26 00:09:15;;;;;;;32.67;5.07;;;;;;;;;;4930792;28;20397;-78
2024/01/26 00:11:41;;;;;;;24.55;4.80;;;;;;;;;;4928633;29;20027;-78
2024/01/26 00:14:07;;;;;;;23.90;4.68;;;;;;;;;;4929394;28;20070;-78
2024/01/26 00:16:33;;;;;;;18.73;4.60;;;;;;;;;;4948436;28;20065;-78
2024/01/26 00:18:59;;;;;;;22.48;5.43;;;;;;;;;;4947667;28;20031;-79
2024/01/26 00:21:24;;;;;;;19.58;5.00;;;;;;;;;;4962619;28;20037;-78
2024/01/26 00:23:50;;;;;;;23.70;5.03;;;;;;;;;;4931103;28;20046;-78
2024/01/26 00:26:16;;;;;;;20.05;5.22;;;;;;;;;;4965138;28;20031;-78
2024/01/26 00:28:42;;;;;;;22.13;5.25;;;;;;;;;;4929707;29;20517;-77
2024/01/26 00:31:07;;;;;;;28.40;5.70;;;;;;;;;;4913467;29;20491;-78
2024/01/26 00:33:33;;;;;;;15.07;4.82;;;;;;;;;;4932629;28;20034;-77
2024/01/26 00:35:59;;;;;;;13.07;4.70;;;;;;;;;;4953600;29;20046;-78
2024/01/26 00:38:24;;;;;;;18.25;4.40;;;;;;;;;;4923687;28;20042;-78
2024/01/26 00:40:51;;;;;;;16.98;4.68;;;;;;;;;;4938497;28;20034;-78
2024/01/26 00:43:19;;;;;;;17.50;4.50;;;;;;;;;;4942370;28;20031;-78
2024/01/26 00:45:46;;;;;;;20.30;4.35;;;;;;;;;;4936336;29;20372;-76
2024/01/26 00:48:11;;;;;;;19.55;3.90;;;;;;;;;;4948317;28;20031;-77
2024/01/26 00:50:40;;;;;;;24.33;4.78;;;;;;;;;;4953612;28;20033;-77
2024/01/26 00:53:06;;;;;;;21.58;4.68;;;;;;;;;;4955564;28;20069;-78
2024/01/26 00:55:33;;;;;;;23.75;4.97;;;;;;;;;;4937714;28;20046;-79
2024/01/26 00:57:59;;;;;;;19.48;4.60;;;;;;;;;;4969711;28;20042;-78
2024/01/26 01:00:25;;;;;;;17.50;4.38;;;;;;;;;;4945932;28;20077;-77
2024/01/26 01:02:51;;;;;;;22.40;4.65;;;;;;;;;;4952101;28;20071;-78
2024/01/26 01:05:17;;;;;;;14.75;4.25;;;;;;;;;;4955054;28;20069;-77
2024/01/26 01:07:43;;;;;;;17.65;4.07;;;;;;;;;;4960117;28;20026;-77
2024/01/26 01:10:13;;;;;;;28.15;6.10;;;;;;;;;;4948316;28;20027;-77
2024/01/26 01:12:39;;;;;;;17.80;4.40;;;;;;;;;;4965411;28;20494;-76
2024/01/26 01:15:05;;;;;;;24.13;4.40;;;;;;;;;;4950801;28;20037;-78
2024/01/26 01:17:31;;;;;;;20.50;4.32;;;;;;;;;;4952922;28;20019;-77
2024/01/26 01:19:57;;;;;;;15.18;3.90;;;;;;;;;;4951577;28;20018;-77
2024/01/26 01:22:23;;;;;;;20.85;4.43;;;;;;;;;;4950804;28;20050;-78
2024/01/26 01:24:48;;;;;;;19.83;5.03;;;;;;;;;;4948351;28;20047;-78
2024/01/26 01:27:15;;;;;;;15.43;3.90;;;;;;;;;;4937532;29;20027;-78
2024/01/26 01:29:40;;;;;;;16.70;5.13;;;;;;;;;;4937630;28;20482;-79
2024/01/26 01:32:06;;;;;;;24.67;5.45;;;;;;;;;;4950595;28;20363;-80
2024/01/26 01:34:33;;;;;;;20.58;4.22;;;;;;;;;;4949093;28;20486;-79
2024/01/26 01:36:59;;;;;;;17.85;4.45;;;;;;;;;;4957007;29;20031;-78
2024/01/26 01:39:24;;;;;;;19.73;4.80;;;;;;;;;;4927221;29;20379;-80
2024/01/26 01:41:50;;;;;;;17.85;4.50;;;;;;;;;;4934575;28;20098;-79
2024/01/26 01:44:16;;;;;;;18.23;4.13;;;;;;;;;;4938348;28;20043;-78
2024/01/26 01:46:41;;;;;;;23.83;4.13;;;;;;;;;;4944974;28;20057;-78
2024/01/26 01:49:07;;;;;;;17.27;3.88;;;;;;;;;;4934671;28;20102;-78
2024/01/26 01:51:35;;;;;;;22.65;6.13;;;;;;;;;;4935514;28;20122;-79
2024/01/26 01:54:01;;;;;;;20.90;4.53;;;;;;;;;;4949798;28;20058;-79
2024/01/26 01:56:28;;;;;;;18.30;4.82;;;;;;;;;;4960427;28;20030;-78
2024/01/26 01:58:55;;;;;;;11.48;3.40;;;;;;;;;;4961149;28;20038;-79
2024/01/26 02:01:21;;;;;;;21.38;4.38;;;;;;;;;;4948154;28;20108;-79
2024/01/26 02:03:47;;;;;;;23.50;4.60;;;;;;;;;;4932013;28;20105;-79
2024/01/26 02:06:12;;;;;;;19.05;3.83;;;;;;;;;;4959662;28;20035;-80
2024/01/26 02:08:39;;;;;;;15.68;3.80;;;;;;;;;;4929752;28;20038;-79
2024/01/26 02:11:05;;;;;;;14.27;3.70;;;;;;;;;;4947648;28;20118;-78
2024/01/26 02:13:30;;;;;;;14.40;3.63;;;;;;;;;;4964697;28;20482;-80
2024/01/26 02:15:56;;;;;;;12.50;3.92;;;;;;;;;;4937562;29;20043;-78
2024/01/26 02:18:30;;;;;;;15.52;3.80;;;;;;;;;;4933059;29;20553;-78
2024/01/26 02:20:56;;;;;;;19.35;4.03;;;;;;;;;;4944478;28;20038;-78
2024/01/26 02:23:22;;;;;;;18.10;3.88;;;;;;;;;;4936497;29;20050;-79
2024/01/26 02:25:48;;;;;;;18.02;4.22;;;;;;;;;;4925407;28;20143;-79
2024/01/26 02:28:14;;;;;;;18.25;3.88;;;;;;;;;;4922785;28;20067;-78
2024/01/26 02:30:39;;;;;;;17.67;3.97;;;;;;;;;;4942209;29;20043;-78
2024/01/26 02:33:05;;;;;;;14.65;3.72;;;;;;;;;;4944199;28;20035;-81
2024/01/26 02:35:31;;;;;;;15.48;3.83;;;;;;;;;;4937145;29;20058;-77
2024/01/26 02:37:57;;;;;;;15.32;4.65;;;;;;;;;;4937983;29;20032;-78
2024/01/26 02:40:23;;;;;;;21.83;4.07;;;;;;;;;;4949912;28;20044;-78
2024/01/26 02:42:48;;;;;;;15.35;4.22;;;;;;;;;;4941813;28;20037;-79
2024/01/26 02:45:14;;;;;;;18.80;4.43;;;;;;;;;;4948007;28;20034;-79
2024/01/26 02:47:40;;;;;;;21.20;4.30;;;;;;;;;;4930035;29;20483;-79
2024/01/26 02:50:06;;;;;;;17.70;4.88;;;;;;;;;;4929732;29;20042;-79
2024/01/26 02:52:32;;;;;;;18.83;4.50;;;;;;;;;;4925727;28;20058;-80
2024/01/26 02:54:57;;;;;;;15.98;4.15;;;;;;;;;;4949620;28;20140;-78
2024/01/26 02:57:23;;;;;;;19.88;3.92;;;;;;;;;;4930220;28;20046;-80
2024/01/26 02:59:49;;;;;;;15.05;3.92;;;;;;;;;;4933536;29;20039;-79
2024/01/26 03:02:14;;;;;;;21.13;4.40;;;;;;;;;;4928578;28;20038;-78
2024/01/26 03:04:40;;;;;;;19.85;3.35;;;;;;;;;;4953136;28;20031;-79
2024/01/26 03:07:06;;;;;;;25.55;3.80;;;;;;;;;;4943271;28;20034;-78
2024/01/26 03:09:31;;;;;;;20.15;3.75;;;;;;;;;;4942392;28;20090;-78
2024/01/26 03:11:57;;;;;;;13.65;3.83;;;;;;;;;;4947130;28;20026;-77
2024/01/26 03:14:23;;;;;;;19.88;3.90;;;;;;;;;;4935113;29;20031;-78
2024/01/26 03:16:48;;;;;;;21.45;4.38;;;;;;;;;;4926392;29;20483;-78
2024/01/26 03:19:14;;;;;;;19.38;3.75;;;;;;;;;;4944334;29;20035;-78
2024/01/26 03:21:41;;;;;;;15.15;3.42;;;;;;;;;;4946719;28;20065;-77
2024/01/26 03:24:06;;;;;;;19.70;3.88;;;;;;;;;;4931673;29;20059;-77
2024/01/26 03:26:32;;;;;;;16.08;4.07;;;;;;;;;;4923292;28;20042;-78
2024/01/26 03:28:57;;;;;;;27.38;4.43;;;;;;;;;;4954923;28;20030;-77
2024/01/26 03:31:23;;;;;;;21.48;4.68;;;;;;;;;;4951617;28;20074;-77
2024/01/26 03:33:48;;;;;;;17.70;4.72;;;;;;;;;;4927101;29;20031;-78
2024/01/26 03:36:15;;;;;;;21.45;3.95;;;;;;;;;;4929857;28;20058;-78
2024/01/26 03:38:40;;;;;;;13.40;3.47;;;;;;;;;;4927181;29;20104;-79
2024/01/26 03:41:06;;;;;;;13.50;3.92;;;;;;;;;;4942656;28;20050;-78
2024/01/26 03:43:32;;;;;;;19.50;3.65;;;;;;;;;;4933094;28;20076;-78
2024/01/26 03:45:57;;;;;;;23.17;4.65;;;;;;;;;;4938878;29;20035;-78
2024/01/26 03:48:23;;;;;;;22.15;4.40;;;;;;;;;;4941204;29;20109;-78
2024/01/26 03:50:48;;;;;;;15.13;3.47;;;;;;;;;;4931622;28;20046;-78
2024/01/26 03:53:14;;;;;;;12.68;3.67;;;;;;;;;;4930566;29;20063;-79
2024/01/26 03:55:40;;;;;;;24.58;3.75;;;;;;;;;;4957257;28;20042;-79
2024/01/26 03:58:05;;;;;;;15.38;4.18;;;;;;;;;;4936223;28;20556;-78
2024/01/26 04:00:32;;;;;;;19.75;3.60;;;;;;;;;;4935877;29;20031;-78
2024/01/26 04:03:00;;;;;;;18.58;3.97;;;;;;;;;;4946336;28;20050;-78
2024/01/26 04:05:26;;;;;;;22.85;3.95;;;;;;;;;;4935460;28;20070;-79
2024/01/26 04:07:52;;;;;;;23.00;4.05;;;;;;;;;;4934188;29;20041;-80
2024/01/26 04:10:18;;;;;;;18.38;4.00;;;;;;;;;;4924987;28;20059;-77
2024/01/26 04:12:43;;;;;;;17.52;3.97;;;;;;;;;;4936184;28;20035;-77
2024/01/26 04:15:09;;;;;;;20.30;3.28;;;;;;;;;;4933614;28;20037;-78
2024/01/26 04:17:35;;;;;;;16.73;4.25;;;;;;;;;;4945818;29;20035;-77
2024/01/26 04:20:02;;;;;;;17.13;4.03;;;;;;;;;;4933298;28;20042;-77
2024/01/26 04:22:28;;;;;;;20.63;4.22;;;;;;;;;;4950120;28;20042;-77
2024/01/26 04:24:53;;;;;;;21.05;3.85;;;;;;;;;;4923376;29;20035;-77
2024/01/26 04:27:20;;;;;;;15.55;4.55;;;;;;;;;;4930450;28;20039;-77
2024/01/26 04:29:46;;;;;;;17.75;3.85;;;;;;;;;;4957760;29;20027;-77
2024/01/26 04:32:11;;;;;;;23.17;3.95;;;;;;;;;;4945416;28;20028;-77
2024/01/26 04:34:41;;;;;;;21.80;4.28;;;;;;;;;;4952484;28;20046;-77
2024/01/26 04:37:07;;;;;;;19.75;3.92;;;;;;;;;;4924200;28;20042;-77
2024/01/26 04:39:33;;;;;;;22.05;5.10;;;;;;;;;;4948843;28;20046;-78
2024/01/26 04:41:59;;;;;;;21.92;3.60;;;;;;;;;;4933760;28;20043;-77
2024/01/26 04:44:25;;;;;;;15.65;4.05;;;;;;;;;;4927132;28;20034;-77
2024/01/26 04:46:53;;;;;;;16.63;4.03;;;;;;;;;;4941382;28;20047;-77
2024/01/26 04:49:19;;;;;;;17.35;3.88;;;;;;;;;;4945140;28;20050;-78
2024/01/26 04:51:44;;;;;;;22.13;4.88;;;;;;;;;;4939294;29;20503;-77
2024/01/26 04:54:10;;;;;;;29.33;6.30;;;;;;;;;;4947099;28;20031;-79
2024/01/26 04:56:36;;;;;;;22.35;4.70;;;;;;;;;;4928608;28;20546;-78
2024/01/26 04:59:05;;;;;;;18.13;3.85;;;;;;;;;;4949011;28;20533;-78
2024/01/26 05:01:37;;;;;;;18.45;3.55;;;;;;;;;;4924165;29;20063;-78
2024/01/26 05:04:03;;;;;;;19.20;4.13;;;;;;;;;;4937084;29;20399;-79
2024/01/26 05:06:30;;;;;;;19.90;3.72;;;;;;;;;;4964005;28;20043;-78
2024/01/26 05:08:56;;;;;;;16.23;4.03;;;;;;;;;;4954595;28;20027;-78
2024/01/26 05:11:22;;;;;;;17.15;3.80;;;;;;;;;;4933404;29;20567;-79
2024/01/26 05:13:48;;;;;;;18.38;3.50;;;;;;;;;;4942561;29;20039;-77
2024/01/26 05:16:13;;;;;;;18.63;3.78;;;;;;;;;;4936400;28;20457;-77
2024/01/26 05:18:40;;;;;;;22.35;4.50;;;;;;;;;;4941285;28;20118;-78
2024/01/26 05:21:06;;;;;;;20.35;4.10;;;;;;;;;;4939123;28;20078;-77
2024/01/26 05:23:32;;;;;;;13.70;3.85;;;;;;;;;;4947796;28;20018;-77
2024/01/26 05:25:57;;;;;;;12.63;3.70;;;;;;;;;;4966232;28;20030;-77
2024/01/26 05:28:23;;;;;;;21.48;4.38;;;;;;;;;;4947682;28;20059;-77
2024/01/26 05:30:49;;;;;;;22.13;4.93;;;;;;;;;;4968143;28;20046;-77
2024/01/26 05:33:15;;;;;;;16.80;4.15;;;;;;;;;;4968251;28;20022;-78
2024/01/26 05:35:40;;;;;;;20.05;4.40;;;;;;;;;;4952578;28;20030;-77
2024/01/26 05:38:06;;;;;;;14.88;4.25;;;;;;;;;;4968008;28;20019;-77
2024/01/26 05:40:32;;;;;;;20.25;4.43;;;;;;;;;;4967300;28;20039;-77
2024/01/26 05:42:58;;;;;;;22.80;4.18;;;;;;;;;;4955824;28;20027;-77
2024/01/26 05:45:24;;;;;;;21.23;5.60;;;;;;;;;;4936737;28;20030;-77
2024/01/26 05:47:49;;;;;;;21.80;5.18;;;;;;;;;;4948603;29;20030;-77
2024/01/26 05:50:15;;;;;;;25.35;4.53;;;;;;;;;;4948672;28;20087;-78
2024/01/26 05:52:41;;;;;;;23.38;4.50;;;;;;;;;;4951194;28;20065;-78
2024/01/26 05:55:07;;;;;;;22.60;4.20;;;;;;;;;;4963731;28;20026;-78
2024/01/26 05:57:33;;;;;;;27.27;5.25;;;;;;;;;;4954528;29;20080;-78
2024/01/26 06:00:00;;;;;;;12.52;3.95;;;;;;;;;;4947262;28;20035;-79
2024/01/26 06:02:27;;;;;;;19.67;4.15;;;;;;;;;;4959219;28;20086;-78
2024/01/26 06:04:53;;;;;;;16.40;5.07;;;;;;;;;;4937599;28;20544;-77
2024/01/26 06:07:18;;;;;;;20.45;4.40;;;;;;;;;;4940496;28;20133;-78
2024/01/26 06:09:44;;;;;;;25.08;4.97;;;;;;;;;;4948590;28;20039;-78
2024/01/26 06:12:10;;;;;;;14.38;4.60;;;;;;;;;;4941981;28;20035;-78
2024/01/26 06:14:35;;;;;;;16.85;4.13;;;;;;;;;;4945970;28;20118;-78
2024/01/26 06:17:02;;;;;;;19.50;4.35;;;;;;;;;;4929461;28;20042;-77
2024/01/26 06:19:27;;;;;;;20.08;4.57;;;;;;;;;;4947334;28;20039;-77
2024/01/26 06:21:53;;;;;;;22.23;4.78;;;;;;;;;;4931828;28;20038;-78
2024/01/26 06:24:19;;;;;;;19.02;4.10;;;;;;;;;;4940106;28;20136;-79
2024/01/26 06:26:44;;;;;;;20.65;3.63;;;;;;;;;;4930112;28;20030;-80
2024/01/26 06:29:10;;;;;;;17.48;4.53;;;;;;;;;;4947454;28;20026;-79
2024/01/26 06:31:36;;;;;;;17.05;5.13;;;;;;;;;;4935607;28;20034;-79
2024/01/26 06:34:02;;;;;;;19.25;4.10;;;;;;;;;;4931627;28;20110;-79
2024/01/26 06:36:29;;;;;;;16.65;3.72;;;;;;;;;;4944951;28;20084;-79
2024/01/26 06:38:55;;;;;;;15.85;3.75;;;;;;;;;;4942062;28;20059;-78
2024/01/26 06:41:20;;;;;;;18.10;4.40;;;;;;;;;;4930144;28;20049;-78
2024/01/26 06:43:51;;;;;;;16.77;4.75;;;;;;;;;;4946289;28;20037;-78
2024/01/26 06:46:23;;;;;;;14.85;3.90;;;;;;;;;;4958454;28;20490;-78
2024/01/26 06:48:49;;;;;;;20.98;4.60;;;;;;;;;;4935056;28;20471;-79
2024/01/26 06:51:16;;;;;;;20.40;3.88;;;;;;;;;;4962137;28;20062;-78
2024/01/26 06:53:42;;;;;;;20.23;4.43;;;;;;;;;;4928407;28;20061;-80
2024/01/26 06:56:07;;;;;;;22.35;4.82;;;;;;;;;;4927837;28;20398;-79
2024/01/26 06:58:34;;;;;;;10.05;3.85;;;;;;;;;;4953505;28;20043;-80
2024/01/26 07:01:00;;;;;;;17.45;4.13;;;;;;;;;;4930640;28;20408;-79
2024/01/26 07:03:26;;;;;;;11.50;3.95;;;;;;;;;;4937971;28;20057;-79
2024/01/26 07:05:52;;;;;;;18.48;3.90;;;;;;;;;;4923339;29;20051;-79
2024/01/26 07:08:17;;;;;;;16.05;4.00;;;;;;;;;;4942602;28;20038;-79
2024/01/26 07:10:43;;;;;;;13.40;3.58;;;;;;;;;;4925992;29;20066;-79
2024/01/26 07:13:09;;;;;;;12.77;3.90;;;;;;;;;;4940264;28;20072;-80
2024/01/26 07:15:36;;;;;;;15.20;3.40;;;;;;;;;;4928438;28;20050;-79
2024/01/26 07:18:02;;;;;;;9.48;3.17;;;;;;;;;;4923594;28;20043;-79
2024/01/26 07:20:28;;;;;;;12.77;3.33;;;;;;;;;;4927257;28;20046;-79
2024/01/26 07:22:53;;;;;;;9.95;3.15;;;;;;;;;;4947303;28;20043;-79
2024/01/26 07:25:20;;;;;;;10.35;3.45;;;;;;;;;;4933613;29;20032;-78
2024/01/26 07:27:46;;;;;;;8.57;2.55;;;;;;;;;;4941764;28;20118;-79
2024/01/26 07:30:13;;;;;;;11.95;2.22;;;;;;;;;;4940849;28;20027;-77
2024/01/26 07:32:39;;;;;;;13.57;2.38;;;;;;;;;;4929921;28;20043;-78
2024/01/26 07:35:06;;;;;;;6.72;2.80;;;;;;;;;;4940374;29;20070;-78
2024/01/26 07:37:33;;;;;;;7.53;2.72;;;;;;;;;;4936459;28;20042;-78
2024/01/26 07:39:58;;;;;;;7.53;2.45;;;;;;;;;;4940961;28;20436;-78
2024/01/26 07:42:24;;;;;;;7.93;2.60;;;;;;;;;;4951211;28;20047;-80
2024/01/26 07:44:50;;;;;;;7.07;2.40;;;;;;;;;;4959587;28;20061;-79
2024/01/26 07:47:16;;;;;;;11.95;2.45;;;;;;;;;;4933063;28;20506;-79
2024/01/26 07:49:41;;;;;;;14.80;3.50;;;;;;;;;;4940461;28;20043;-80
2024/01/26 07:52:07;;;;;;;6.05;2.58;;;;;;;;;;4943601;28;20034;-79
2024/01/26 07:54:33;;;;;;;9.13;2.30;;;;;;;;;;4953245;28;20038;-78
2024/01/26 07:56:59;;;;;;;9.23;2.55;;;;;;;;;;4944845;28;20042;-79
2024/01/26 07:59:25;;;;;;;7.65;2.22;;;;;;;;;;4946975;28;20114;-79
2024/01/26 08:01:50;;;;;;;5.65;2.50;;;;;;;;;;4944050;28;20034;-79
2024/01/26 08:04:16;;;;;;;5.40;2.25;;;;;;;;;;4932023;28;20034;-79
2024/01/26 08:06:42;;;;;;;13.38;2.65;;;;;;;;;;4930224;28;20041;-79
2024/01/26 08:09:10;;;;;;;8.75;2.50;;;;;;;;;;4947348;28;20041;-79
2024/01/26 08:11:36;;;;;;;6.03;2.30;;;;;;;;;;4926182;29;20031;-80
2024/01/26 08:14:02;;;;;;;7.07;2.53;;;;;;;;;;4941520;28;20055;-79
2024/01/26 08:16:28;;;;;;;6.40;2.45;;;;;;;;;;4927801;28;20035;-78
2024/01/26 08:21:59;;;;;;;6.82;2.58;;;;;;;;;;4938164;28;20059;-80
2024/01/26 08:24:26;;;;;;;6.30;2.40;;;;;;;;;;4958840;28;20033;-79
2024/01/26 08:26:52;;;;;;;5.55;2.70;;;;;;;;;;4943407;28;20041;-78
2024/01/26 08:29:21;;;;;;;8.70;3.17;;;;;;;;;;4931322;29;20118;-78
2024/01/26 08:31:47;;;;;;;13.18;5.60;;;;;;;;;;4920365;29;20046;-78
2024/01/26 08:34:13;;;;;;;10.48;5.18;;;;;;;;;;4930147;28;20043;-77
2024/01/26 08:36:38;;;;;;;14.02;5.68;;;;;;;;;;4943437;28;20038;-77
2024/01/26 08:39:04;;;;;;;8.43;3.83;;;;;;;;;;4932821;29;20089;-77
2024/01/26 08:41:30;;;;;;;8.38;3.72;;;;;;;;;;4926580;28;20026;-78
2024/01/26 08:43:56;;;;;;;6.90;3.60;;;;;;;;;;4953953;28;20397;-78
2024/01/26 08:46:21;;;;;;;8.88;4.45;;;;;;;;;;4945044;28;20033;-79
2024/01/26 08:48:47;;;;;;;8.88;4.38;;;;;;;;;;4928422;29;20046;-79
2024/01/26 08:51:13;;;;;;;12.82;4.20;;;;;;;;;;4936622;28;20093;-78
2024/01/26 08:53:38;;;;;;;8.35;3.20;;;;;;;;;;4942596;28;20039;-79
2024/01/26 08:56:05;;;;;;;8.25;2.38;;;;;;;;;;4937359;28;20038;-78
2024/01/26 08:58:30;;;;;;;8.18;3.75;;;;;;;;;;4953834;28;20039;-81
2024/01/26 09:00:57;;;;;;;8.65;3.35;;;;;;;;;;4959899;28;20061;-79
2024/01/26 09:03:22;;;;;;;14.80;6.28;;;;;;;;;;4941228;28;20062;-78
2024/01/26 09:05:48;;;;;;;7.07;3.45;;;;;;;;;;4929465;29;20027;-78
2024/01/26 09:08:14;;;;;;;6.80;3.47;;;;;;;;;;4938558;29;20039;-79
2024/01/26 09:10:47;;;;;;;5.07;2.55;;;;;;;;;;4918983;28;20047;-78
2024/01/26 09:13:13;;;;;;;7.60;3.33;;;;;;;;;;4932153;28;20057;-78
2024/01/26 09:15:39;;;;;;;6.90;3.05;;;;;;;;;;4955360;28;20051;-79
2024/01/26 09:18:06;;;;;;;7.75;3.15;;;;;;;;;;4935910;28;20035;-78
2024/01/26 09:20:33;;;;;;;5.18;2.28;;;;;;;;;;4942782;29;20078;-79
2024/01/26 09:22:59;;;;;;;6.70;2.50;;;;;;;;;;4941781;28;20142;-78
2024/01/26 09:25:24;;;;;;;3.75;1.85;;;;;;;;;;4934255;29;20046;-78
2024/01/26 09:27:50;;;;;;;3.03;1.70;;;;;;;;;;4935136;28;20041;-80
2024/01/26 09:30:15;;;;;;;2.53;1.48;;;;;;;;;;4934595;28;20034;-77
2024/01/26 09:32:41;;;;;;;3.38;1.77;;;;;;;;;;4953317;28;20034;-77
2024/01/26 09:35:09;;;;;;;3.88;1.90;;;;;;;;;;4936435;29;20047;-77
2024/01/26 09:37:35;;;;;;;2.75;1.58;;;;;;;;;;4940907;28;20038;-77
2024/01/26 09:40:01;;;;;;;4.82;1.83;;;;;;;;;;4930059;28;20394;-77
2024/01/26 09:42:27;;;;;;;3.58;1.67;;;;;;;;;;4938565;28;20081;-79
2024/01/26 09:44:55;;;;;;;2.40;1.33;;;;;;;;;;4924253;29;20050;-77
2024/01/26 09:47:21;;;;;;;5.73;1.80;;;;;;;;;;4943935;29;20038;-77
2024/01/26 09:50:00;;;;;;;4.55;1.58;;;;;;;;;;4931421;29;20055;-78
2024/01/26 09:52:26;;;;;;;;;;;;;;;;;;4956855;28;20023;-78
2024/01/26 09:54:52;;;;;;;4.28;1.65;;;;;;;;;;4946698;28;19925;-78
2024/01/26 09:57:20;;;;;;;7.07;1.90;;;;;;;;;;4946752;28;20058;-79
2024/01/26 09:59:50;;;;;;;5.50;1.63;;;;;;;;;;4958383;28;20089;-80
2024/01/26 10:02:16;;;;;;;4.03;1.40;;;;;;;;;;4950993;28;20042;-78
2024/01/26 10:04:41;;;;;;;4.32;1.70;;;;;;;;;;4947587;28;20105;-79
2024/01/26 10:07:07;;;;;;;5.10;1.90;;;;;;;;;;4963474;28;20038;-78
2024/01/26 10:09:35;;;;;;;3.28;1.70;;;;;;;;;;4963835;28;20085;-78
2024/01/26 10:12:01;;;;;;;5.05;1.65;;;;;;;;;;4949047;28;20023;-79
2024/01/26 10:14:27;;;;;;;4.13;1.50;;;;;;;;;;4963281;28;20102;-78
2024/01/26 10:17:01;;;;;;;3.38;1.58;;;;;;;;;;4949360;28;20038;-79
2024/01/26 10:19:27;;;;;;;4.38;1.80;;;;;;;;;;4948862;28;20064;-79
2024/01/26 10:21:54;;;;;;;5.28;1.65;;;;;;;;;;4949683;28;20027;-79
2024/01/26 10:24:23;;;;;;;2.78;1.27;;;;;;;;;;4966954;28;20061;-81
2024/01/26 10:27:10;;;;;;;3.15;1.45;;;;;;;;;;4966798;28;20042;-83
2024/01/26 10:29:39;;;;;;;3.25;1.60;;;;;;;;;;4947553;28;20047;-85
2024/01/26 10:32:08;;;;;;;2.88;1.30;;;;;;;;;;4959742;28;20065;-85
2024/01/26 10:34:34;;;;;;;3.65;1.05;;;;;;;;;;4939915;28;20045;-83
2024/01/26 10:37:00;;;;;;;2.03;1.20;;;;;;;;;;4954079;28;20486;-84
2024/01/26 10:39:29;;;;;;;2.42;1.08;;;;;;;;;;4938455;28;20498;-82
2024/01/26 10:42:00;;;;;;;1.77;0.98;;;;;;;;;;4947095;29;20130;-83
2024/01/26 10:44:27;;;;;;;4.40;1.55;;;;;;;;;;4936410;28;20043;-82
2024/01/26 10:46:54;;;;;;;3.22;1.30;;;;;;;;;;4922714;29;20059;-80
2024/01/26 10:49:22;;;;;;;3.20;1.23;;;;;;;;;;4944052;28;20062;-80
2024/01/26 10:51:48;;;;;;;2.22;1.10;;;;;;;;;;4943282;28;20490;-80
2024/01/26 10:54:17;;;;;;;1.93;0.97;;;;;;;;;;4955415;28;20034;-80
2024/01/26 10:56:43;;;;;;;2.33;1.20;;;;;;;;;;4956540;28;20031;-80
2024/01/26 10:59:10;;;;;;;2.78;1.40;;;;;;;;;;4947732;28;20041;-80
2024/01/26 11:01:39;;;;;;;2.33;1.10;;;;;;;;;;4952357;29;20043;-80
2024/01/26 11:04:08;;;;;;;6.68;0.90;;;;;;;;;;4937557;28;20247;-79
2024/01/26 11:06:34;;;;;;;1.85;0.88;;;;;;;;;;4951385;28;20030;-79
2024/01/26 11:09:03;;;;;;;3.00;0.93;;;;;;;;;;4956757;28;20041;-79
2024/01/26 11:11:32;;;;;;;2.20;0.82;;;;;;;;;;4942743;28;20046;-79
2024/01/26 11:13:59;;;;;;;2.70;1.10;;;;;;;;;;4926145;28;20457;-80
2024/01/26 11:16:25;;;;;;;2.80;0.98;;;;;;;;;;4957831;28;20050;-80
2024/01/26 11:19:01;;;;;;;1.88;0.95;;;;;;;;;;4953565;28;20034;-79
2024/01/26 11:21:45;;;;;;;2.70;1.05;;;;;;;;;;4956186;28;20085;-79
2024/01/26 11:24:15;;;;;;;2.55;1.17;;;;;;;;;;4953323;28;20502;-79
2024/01/26 11:27:00;;;;;;;3.15;1.00;;;;;;;;;;4966211;29;20035;-79
2024/01/26 11:29:32;;;;;;;6.45;1.30;;;;;;;;;;4938359;28;20045;-80
2024/01/26 11:31:59;;;;;;;3.30;0.93;;;;;;;;;;4946666;28;20027;-79
2024/01/26 11:34:25;;;;;;;2.08;0.82;;;;;;;;;;4947188;28;20069;-78
2024/01/26 11:37:13;;;;;;;1.83;0.82;;;;;;;;;;4932178;28;20038;-79
2024/01/26 11:39:39;;;;;;;2.65;1.10;;;;;;;;;;4927417;28;20038;-79
2024/01/26 11:42:10;;;;;;;2.15;0.98;;;;;;;;;;4950622;28;20038;-80
2024/01/26 11:44:41;;;;;;;5.05;1.05;;;;;;;;;;4947526;28;20090;-79
2024/01/26 11:47:09;;;;;;;2.20;1.20;;;;;;;;;;4963639;28;20098;-80
2024/01/26 11:49:35;;;;;;;4.80;1.33;;;;;;;;;;4929868;28;20047;-79
2024/01/26 11:52:03;;;;;;;5.25;1.40;;;;;;;;;;4950397;28;20031;-79
2024/01/26 11:54:30;;;;;;;4.70;1.38;;;;;;;;;;4935250;28;20127;-79
2024/01/26 11:56:57;;;;;;;4.57;1.42;;;;;;;;;;4931360;28;20031;-79
2024/01/26 11:59:22;;;;;;;3.55;1.02;;;;;;;;;;4937121;28;20058;-79
2024/01/26 12:01:48;;;;;;;3.22;1.30;;;;;;;;;;4946582;28;20026;-79
2024/01/26 12:04:16;;;;;;;4.25;1.20;;;;;;;;;;4945903;28;20038;-78
2024/01/26 12:06:42;;;;;;;2.75;1.38;;;;;;;;;;4936063;28;20446;-78
2024/01/26 12:09:09;;;;;;;4.18;1.48;;;;;;;;;;4949854;28;20027;-81
2024/01/26 12:11:37;;;;;;;4.85;1.85;;;;;;;;;;4948911;28;20031;-79
2024/01/26 12:14:09;;;;;;;7.43;1.83;;;;;;;;;;4945015;28;20243;-81
2024/01/26 12:16:44;;;;;;;6.13;1.92;;;;;;;;;;4946827;28;20027;-81
2024/01/26 12:19:10;;;;;;;4.22;1.85;;;;;;;;;;4925557;28;20027;-78
2024/01/26 12:21:36;;;;;;;4.82;1.63;;;;;;;;;;4943557;28;20294;-79
2024/01/26 12:24:11;;;;;;;4.88;1.63;;;;;;;;;;4947564;28;20027;-79
2024/01/26 12:26:37;;;;;;;4.20;2.38;;;;;;;;;;4948310;28;20404;-79
2024/01/26 12:29:04;;;;;;;4.95;1.42;;;;;;;;;;4960164;23;20047;-83
2024/01/26 12:31:37;;;;;;;4.00;1.83;;;;;;;;;;4915374;29;20118;-83
2024/01/26 12:34:12;;;;;;;4.93;1.63;;;;;;;;;;4931791;29;20031;-80
2024/01/26 12:36:40;;;;;;;6.68;1.60;;;;;;;;;;4916266;28;20047;-81
2024/01/26 12:39:06;;;;;;;2.88;1.60;;;;;;;;;;4947616;29;20039;-83
2024/01/26 12:41:33;;;;;;;3.92;2.17;;;;;;;;;;4905267;29;20138;-82
2024/01/26 12:44:00;;;;;;;7.28;1.88;;;;;;;;;;4935843;29;20051;-81
2024/01/26 12:46:26;;;;;;;4.22;1.85;;;;;;;;;;4934667;29;20107;-82
2024/01/26 12:48:52;;;;;;;4.55;1.80;;;;;;;;;;4933575;29;20087;-82
2024/01/26 12:51:19;;;;;;;8.93;2.22;;;;;;;;;;4917485;29;20032;-82
2024/01/26 12:53:46;;;;;;;3.90;1.55;;;;;;;;;;4933775;29;20036;-80
2024/01/26 12:56:13;;;;;;;4.00;2.03;;;;;;;;;;4944963;29;20039;-81
2024/01/26 12:58:40;;;;;;;3.75;1.70;;;;;;;;;;4923575;29;20099;-81
2024/01/26 13:01:08;;;;;;;3.08;1.73;;;;;;;;;;4930860;29;20039;-81
2024/01/26 13:03:34;;;;;;;3.33;1.60;;;;;;;;;;4911309;29;20036;-80
2024/01/26 13:06:00;;;;;;;3.78;2.15;;;;;;;;;;4940502;29;20012;-81
2024/01/26 13:08:26;;;;;;;5.22;1.75;;;;;;;;;;4945743;29;20055;-79
2024/01/26 13:10:54;;;;;;;3.22;1.75;;;;;;;;;;4937336;29;20027;-79
2024/01/26 13:13:27;;;;;;;9.30;1.98;;;;;;;;;;4960986;28;20046;-81
2024/01/26 13:15:52;;;;;;;5.25;1.75;;;;;;;;;;4964413;28;20502;-81
2024/01/26 13:18:18;;;;;;;3.20;1.58;;;;;;;;;;4949339;29;20090;-81
2024/01/26 13:20:44;;;;;;;3.22;1.67;;;;;;;;;;4919685;29;20039;-81
2024/01/26 13:23:10;;;;;;;6.50;1.80;;;;;;;;;;4949723;28;20054;-81
2024/01/26 13:25:38;;;;;;;5.07;2.17;;;;;;;;;;4935904;29;20047;-82
2024/01/26 13:28:03;;;;;;;4.63;1.67;;;;;;;;;;4947490;28;20038;-82
2024/01/26 13:30:29;;;;;;;6.57;1.77;;;;;;;;;;4956617;28;20035;-81
2024/01/26 13:32:56;;;;;;;4.50;2.50;;;;;;;;;;4959904;28;20110;-82
2024/01/26 13:35:23;;;;;;;3.45;1.60;;;;;;;;;;4959020;28;20035;-82
2024/01/26 13:37:48;;;;;;;2.40;1.35;;;;;;;;;;4963714;28;20041;-82
2024/01/26 13:40:14;;;;;;;6.90;1.40;;;;;;;;;;4955195;29;20035;-82
2024/01/26 13:42:41;;;;;;;5.10;1.35;;;;;;;;;;4926763;29;20119;-81
2024/01/26 13:45:11;;;;;;;3.40;1.58;;;;;;;;;;4942097;29;20102;-80
2024/01/26 13:47:38;;;;;;;5.30;1.60;;;;;;;;;;4958626;29;20250;-82
2024/01/26 13:50:06;;;;;;;5.40;2.22;;;;;;;;;;4950819;29;20024;-81
2024/01/26 13:52:31;;;;;;;4.53;1.30;;;;;;;;;;4923387;29;20047;-81
2024/01/26 13:54:57;;;;;;;3.70;1.45;;;;;;;;;;4909073;29;20039;-82
2024/01/26 13:57:23;;;;;;;3.60;1.40;;;;;;;;;;4925467;29;20023;-81
2024/01/26 13:59:48;;;;;;;2.70;1.17;;;;;;;;;;4925303;29;20042;-79
2024/01/26 14:02:14;;;;;;;2.38;1.20;;;;;;;;;;4923513;29;20040;-81
2024/01/26 14:04:40;;;;;;;3.33;1.92;;;;;;;;;;4927778;29;20106;-81
2024/01/26 14:07:05;;;;;;;3.55;1.60;;;;;;;;;;4941610;29;20043;-82
2024/01/26 14:09:31;;;;;;;2.15;0.90;;;;;;;;;;4940577;29;20032;-81
2024/01/26 14:11:57;;;;;;;1.92;0.95;;;;;;;;;;4956517;29;20050;-82
2024/01/26 14:14:22;;;;;;;2.13;1.08;;;;;;;;;;4919741;29;20099;-80
2024/01/26 14:16:49;;;;;;;3.10;0.95;;;;;;;;;;4942386;29;20042;-81
2024/01/26 14:19:15;;;;;;;2.05;0.80;;;;;;;;;;4936159;29;20032;-81
2024/01/26 14:21:41;;;;;;;2.22;0.95;;;;;;;;;;4954983;28;20063;-80
2024/01/26 14:24:08;;;;;;;1.67;0.80;;;;;;;;;;4949641;29;20035;-82
2024/01/26 14:26:35;;;;;;;2.50;0.80;;;;;;;;;;4938883;29;20035;-80
2024/01/26 14:29:00;;;;;;;1.00;0.50;;;;;;;;;;4932009;29;20031;-81
2024/01/26 14:31:26;;;;;;;1.75;1.00;;;;;;;;;;4938477;29;20511;-81
2024/01/26 14:33:54;;;;;;;2.28;1.25;;;;;;;;;;4934267;29;20368;-82
2024/01/26 14:36:20;;;;;;;4.93;1.00;;;;;;;;;;4940732;29;20038;-81